createdAt,value
2019-02-21T00:00:53.702Z,74.87
2019-02-21T00:01:53.682Z,74.87
2019-02-21T00:02:53.680Z,75.29
2019-02-21T00:03:53.697Z,74.87
2019-02-21T00:04:53.651Z,74.02
2019-02-21T00:05:53.643Z,74.02
2019-02-21T00:06:53.632Z,74.55
2019-02-21T00:07:53.626Z,74.33
2019-02-21T00:08:53.617Z,74.33
2019-02-21T00:09:53.646Z,74.23
2019-02-21T00:10:53.595Z,74.02
2019-02-21T00:11:53.583Z,73.81
2019-02-21T00:12:53.682Z,74.02
2019-02-21T00:13:53.568Z,74.33
2019-02-21T00:14:53.555Z,74.23
2019-02-21T00:15:53.726Z,74.02
2019-02-21T00:16:53.529Z,73.70
2019-02-21T00:17:53.519Z,74.23
2019-02-21T00:18:53.513Z,73.81
2019-02-21T00:19:53.499Z,73.60
2019-02-21T00:20:53.493Z,74.02
2019-02-21T00:21:53.530Z,73.49
2019-02-21T00:23:03.402Z,73.49
2019-02-21T00:23:53.465Z,73.17
2019-02-21T00:24:53.449Z,73.38
2019-02-21T00:25:55.758Z,73.49
2019-02-21T00:26:53.431Z,73.60
2019-02-21T00:27:53.459Z,73.17
2019-02-21T00:28:53.409Z,73.41
2019-02-21T00:29:53.399Z,73.10
2019-02-21T00:30:53.398Z,73.21
2019-02-21T00:31:53.382Z,73.38
2019-02-21T00:32:53.368Z,73.28
2019-02-21T00:33:53.395Z,73.52
2019-02-21T00:34:53.349Z,73.63
2019-02-21T00:35:53.344Z,73.52
2019-02-21T00:36:53.326Z,73.17
2019-02-21T00:37:53.317Z,73.31
2019-02-21T00:38:53.311Z,72.46
2019-02-21T00:39:53.332Z,73.10
2019-02-21T00:40:53.283Z,73.02
2019-02-21T00:41:53.286Z,73.10
2019-02-21T00:42:53.273Z,72.49
2019-02-21T00:43:53.256Z,72.39
2019-02-21T00:44:53.243Z,73.45
2019-02-21T00:45:53.277Z,73.45
2019-02-21T00:46:53.223Z,72.81
2019-02-21T00:47:53.248Z,73.45
2019-02-21T00:48:53.203Z,73.48
2019-02-21T00:49:53.194Z,73.69
2019-02-21T00:50:53.184Z,73.13
2019-02-21T00:51:53.211Z,73.27
2019-02-21T00:52:53.159Z,73.59
2019-02-21T00:54:05.116Z,73.06
2019-02-21T00:54:53.137Z,73.27
2019-02-21T00:55:53.133Z,74.12
2019-02-21T00:56:53.127Z,74.22
2019-02-21T00:57:53.283Z,74.05
2019-02-21T00:58:53.110Z,74.37
2019-02-21T00:59:53.098Z,74.26
2019-02-21T01:00:53.081Z,73.97
2019-02-21T01:01:53.079Z,73.76
2019-02-21T01:02:53.057Z,73.97
2019-02-21T01:03:53.069Z,73.86
2019-02-21T01:04:53.041Z,74.72
2019-02-21T01:05:53.029Z,74.61
2019-02-21T01:06:53.029Z,74.40
2019-02-21T01:07:53.011Z,74.58
2019-02-21T01:08:52.998Z,74.29
2019-02-21T01:09:53.003Z,74.19
2019-02-21T01:10:52.978Z,74.19
2019-02-21T01:11:52.969Z,74.29
2019-02-21T01:12:52.963Z,74.51
2019-02-21T01:13:52.952Z,74.40
2019-02-21T01:14:52.940Z,74.19
2019-02-21T01:15:53.096Z,74.40
2019-02-21T01:16:52.923Z,74.19
2019-02-21T01:17:52.908Z,74.08
2019-02-21T01:18:52.994Z,73.86
2019-02-21T01:19:52.888Z,74.08
2019-02-21T01:20:52.879Z,74.75
2019-02-21T01:21:52.904Z,74.65
2019-02-21T01:22:52.860Z,74.54
2019-02-21T01:23:52.851Z,74.61
2019-02-21T01:25:03.084Z,74.32
2019-02-21T01:25:52.831Z,74.29
2019-02-21T01:26:52.819Z,74.29
2019-02-21T01:27:52.844Z,73.97
2019-02-21T01:28:52.801Z,74.32
2019-02-21T01:29:52.799Z,74.43
2019-02-21T01:30:57.070Z,74.43
2019-02-21T01:31:52.771Z,74.43
2019-02-21T01:32:52.763Z,74.08
2019-02-21T01:33:52.788Z,74.43
2019-02-21T01:34:52.736Z,74.32
2019-02-21T01:35:52.730Z,74.32
2019-02-21T01:36:52.722Z,74.65
2019-02-21T01:37:52.719Z,74.22
2019-02-21T01:38:52.693Z,74.65
2019-02-21T01:39:52.721Z,74.75
2019-02-21T01:40:52.673Z,75.18
2019-02-21T01:41:52.671Z,75.53
2019-02-21T01:42:52.660Z,75.42
2019-02-21T01:43:52.653Z,75.42
2019-02-21T01:44:52.641Z,75.21
2019-02-21T01:45:52.663Z,75.42
2019-02-21T01:46:52.617Z,75.21
2019-02-21T01:47:52.608Z,75.53
2019-02-21T01:48:52.593Z,75.35
2019-02-21T01:49:52.599Z,75.67
2019-02-21T01:50:52.580Z,75.13
2019-02-21T01:51:52.610Z,75.85
2019-02-21T01:52:52.552Z,75.21
2019-02-21T01:53:52.550Z,75.46
2019-02-21T01:54:52.540Z,75.42
2019-02-21T01:56:02.900Z,76.73
2019-02-21T01:56:52.518Z,75.99
2019-02-21T01:57:52.607Z,75.35
2019-02-21T01:58:52.492Z,75.56
2019-02-21T01:59:52.484Z,75.35
2019-02-21T02:00:52.487Z,75.78
2019-02-21T02:01:52.464Z,75.67
2019-02-21T02:02:52.461Z,75.13
2019-02-21T02:03:52.620Z,75.78
2019-02-21T02:04:52.440Z,75.67
2019-02-21T02:05:52.426Z,75.46
2019-02-21T02:06:52.416Z,75.46
2019-02-21T02:07:52.407Z,75.46
2019-02-21T02:08:52.392Z,75.46
2019-02-21T02:09:52.432Z,75.17
2019-02-21T02:10:52.373Z,75.24
2019-02-21T02:11:52.383Z,75.60
2019-02-21T02:12:52.356Z,75.60
2019-02-21T02:13:52.342Z,75.56
2019-02-21T02:14:52.338Z,75.67
2019-02-21T02:15:52.500Z,75.27
2019-02-21T02:16:52.314Z,75.60
2019-02-21T02:17:52.304Z,75.49
2019-02-21T02:18:52.294Z,75.49
2019-02-21T02:19:52.282Z,75.49
2019-02-21T02:20:52.277Z,75.92
2019-02-21T02:21:52.318Z,75.27
2019-02-21T02:22:52.253Z,75.17
2019-02-21T02:23:52.242Z,75.49
2019-02-21T02:24:53.103Z,75.70
2019-02-21T02:25:52.224Z,75.49
2019-02-21T02:27:02.678Z,75.38
2019-02-21T02:27:52.204Z,76.02
2019-02-21T02:28:52.196Z,75.81
2019-02-21T02:29:52.183Z,75.84
2019-02-21T02:30:52.175Z,76.16
2019-02-21T02:31:52.173Z,75.92
2019-02-21T02:32:52.192Z,76.27
2019-02-21T02:33:52.143Z,76.16
2019-02-21T02:34:52.151Z,76.80
2019-02-21T02:35:52.122Z,76.37
2019-02-21T02:36:52.117Z,76.59
2019-02-21T02:37:52.101Z,76.59
2019-02-21T02:38:52.138Z,76.06
2019-02-21T02:39:52.096Z,76.91
2019-02-21T02:40:52.080Z,76.27
2019-02-21T02:41:52.065Z,76.70
2019-02-21T02:42:52.052Z,76.48
2019-02-21T02:43:52.042Z,76.80
2019-02-21T02:44:52.072Z,76.91
2019-02-21T02:45:52.030Z,76.80
2019-02-21T02:46:52.012Z,77.37
2019-02-21T02:47:52.001Z,78.44
2019-02-21T02:48:51.999Z,78.30
2019-02-21T02:49:51.989Z,78.08
2019-02-21T02:50:52.014Z,77.48
2019-02-21T02:51:51.981Z,77.58
2019-02-21T02:52:51.959Z,77.12
2019-02-21T02:53:51.948Z,77.37
2019-02-21T02:54:51.933Z,77.69
2019-02-21T02:55:51.922Z,77.69
2019-02-21T02:56:51.952Z,77.90
2019-02-21T02:58:01.724Z,77.69
2019-02-21T02:58:51.894Z,78.01
2019-02-21T02:59:51.883Z,77.80
2019-02-21T03:00:51.878Z,77.69
2019-02-21T03:01:51.866Z,77.80
2019-02-21T03:02:51.901Z,77.97
2019-02-21T03:03:51.843Z,78.22
2019-02-21T03:04:51.842Z,77.69
2019-02-21T03:05:51.830Z,77.58
2019-02-21T03:06:51.818Z,77.48
2019-02-21T03:07:51.808Z,77.90
2019-02-21T03:08:51.827Z,78.11
2019-02-21T03:09:51.784Z,78.44
2019-02-21T03:10:51.793Z,78.22
2019-02-21T03:11:52.272Z,78.01
2019-02-21T03:12:51.753Z,78.01
2019-02-21T03:13:51.742Z,78.44
2019-02-21T03:14:51.902Z,77.58
2019-02-21T03:15:51.721Z,78.11
2019-02-21T03:16:51.717Z,77.69
2019-02-21T03:17:51.707Z,78.54
2019-02-21T03:18:51.700Z,78.65
2019-02-21T03:19:51.683Z,77.69
2019-02-21T03:20:51.712Z,77.80
2019-02-21T03:21:51.662Z,77.80
2019-02-21T03:22:51.657Z,77.69
2019-02-21T03:23:51.648Z,77.69
2019-02-21T03:24:51.633Z,78.11
2019-02-21T03:25:51.620Z,78.11
2019-02-21T03:26:51.675Z,77.90
2019-02-21T03:27:51.606Z,78.44
2019-02-21T03:29:02.215Z,77.90
2019-02-21T03:29:51.577Z,78.01
2019-02-21T03:30:51.571Z,77.48
2019-02-21T03:31:54.973Z,77.58
2019-02-21T03:32:51.599Z,77.72
2019-02-21T03:33:51.565Z,77.90
2019-02-21T03:34:51.530Z,77.69
2019-02-21T03:35:51.531Z,78.26
2019-02-21T03:36:51.531Z,78.58
2019-02-21T03:37:51.525Z,78.26
2019-02-21T03:38:51.527Z,77.94
2019-02-21T03:39:51.478Z,78.05
2019-02-21T03:40:51.469Z,78.68
2019-02-21T03:41:51.471Z,78.79
2019-02-21T03:42:51.455Z,78.36
2019-02-21T03:43:51.442Z,78.89
2019-02-21T03:44:51.449Z,78.15
2019-02-21T03:45:51.419Z,78.26
2019-02-21T03:46:51.416Z,77.94
2019-02-21T03:47:51.406Z,78.68
2019-02-21T03:48:51.391Z,78.50
2019-02-21T03:49:51.384Z,78.50
2019-02-21T03:50:51.406Z,78.19
2019-02-21T03:51:51.358Z,78.40
2019-02-21T03:52:51.351Z,77.86
2019-02-21T03:53:51.347Z,77.97
2019-02-21T03:54:51.326Z,78.19
2019-02-21T03:55:51.328Z,77.97
2019-02-21T03:56:51.350Z,77.97
2019-02-21T03:57:51.295Z,77.72
2019-02-21T03:58:51.289Z,77.65
2019-02-21T04:00:01.331Z,77.86
2019-02-21T04:00:51.266Z,78.40
2019-02-21T04:01:51.280Z,78.15
2019-02-21T04:02:51.281Z,77.97
2019-02-21T04:03:51.237Z,77.86
2019-02-21T04:04:51.245Z,78.61
2019-02-21T04:05:51.216Z,78.19
2019-02-21T04:06:51.211Z,77.76
2019-02-21T04:07:51.199Z,78.61
2019-02-21T04:08:51.237Z,77.97
2019-02-21T04:09:51.181Z,78.01
2019-02-21T04:10:51.183Z,78.19
2019-02-21T04:11:51.161Z,77.97
2019-02-21T04:12:51.222Z,77.97
2019-02-21T04:13:51.139Z,78.33
2019-02-21T04:14:51.223Z,77.86
2019-02-21T04:15:51.122Z,77.86
2019-02-21T04:16:51.116Z,77.97
2019-02-21T04:17:51.148Z,77.86
2019-02-21T04:18:51.092Z,78.08
2019-02-21T04:19:51.156Z,78.08
2019-02-21T04:20:51.101Z,77.90
2019-02-21T04:21:51.120Z,77.90
2019-02-21T04:22:51.053Z,78.33
2019-02-21T04:23:51.037Z,78.64
2019-02-21T04:24:51.030Z,78.64
2019-02-21T04:25:51.025Z,78.75
2019-02-21T04:26:51.044Z,79.07
2019-02-21T04:27:50.996Z,78.97
2019-02-21T04:28:51.023Z,79.07
2019-02-21T04:29:50.977Z,79.07
2019-02-21T04:31:01.474Z,79.50
2019-02-21T04:31:50.955Z,79.71
2019-02-21T04:32:51.036Z,80.04
2019-02-21T04:33:50.936Z,79.86
2019-02-21T04:34:50.932Z,79.75
2019-02-21T04:35:50.918Z,79.75
2019-02-21T04:36:50.914Z,79.86
2019-02-21T04:37:50.898Z,79.64
2019-02-21T04:38:51.057Z,79.32
2019-02-21T04:39:50.886Z,79.53
2019-02-21T04:40:50.863Z,79.22
2019-02-21T04:41:50.855Z,80.35
2019-02-21T04:42:50.843Z,79.75
2019-02-21T04:43:50.832Z,79.75
2019-02-21T04:44:50.879Z,79.64
2019-02-21T04:45:50.816Z,80.18
2019-02-21T04:46:50.802Z,80.29
2019-02-21T04:47:50.792Z,80.39
2019-02-21T04:48:50.785Z,80.14
2019-02-21T04:49:50.819Z,80.07
2019-02-21T04:50:50.954Z,79.75
2019-02-21T04:51:50.750Z,79.64
2019-02-21T04:52:50.746Z,79.75
2019-02-21T04:53:50.749Z,79.22
2019-02-21T04:54:50.725Z,79.64
2019-02-21T04:55:50.712Z,80.43
2019-02-21T04:56:50.759Z,80.18
2019-02-21T04:57:50.693Z,80.39
2019-02-21T04:58:50.682Z,80.50
2019-02-21T04:59:50.684Z,80.07
2019-02-21T05:00:50.659Z,80.43
2019-02-21T05:02:01.875Z,80.43
2019-02-21T05:02:50.642Z,79.86
2019-02-21T05:03:50.636Z,80.82
2019-02-21T05:04:50.620Z,80.32
2019-02-21T05:05:50.612Z,80.43
2019-02-21T05:06:50.618Z,80.43
2019-02-21T05:07:50.762Z,80.64
2019-02-21T05:08:50.579Z,81.35
2019-02-21T05:09:57.918Z,80.75
2019-02-21T05:10:51.563Z,80.96
2019-02-21T05:11:50.549Z,80.21
2019-02-21T05:12:50.544Z,80.43
2019-02-21T05:13:50.566Z,80.96
2019-02-21T05:14:50.523Z,80.71
2019-02-21T05:15:50.510Z,80.85
2019-02-21T05:16:50.501Z,80.21
2019-02-21T05:17:50.491Z,80.11
2019-02-21T05:18:50.483Z,80.11
2019-02-21T05:19:50.503Z,80.43
2019-02-21T05:20:50.464Z,80.43
2019-02-21T05:21:50.445Z,80.21
2019-02-21T05:22:50.438Z,80.21
2019-02-21T05:23:50.429Z,80.32
2019-02-21T05:24:50.422Z,79.79
2019-02-21T05:25:50.443Z,79.68
2019-02-21T05:26:50.407Z,80.18
2019-02-21T05:27:50.400Z,80.43
2019-02-21T05:28:50.381Z,79.75
2019-02-21T05:29:50.368Z,79.90
2019-02-21T05:30:50.363Z,79.90
2019-02-21T05:31:50.389Z,80.00
2019-02-21T05:33:00.605Z,79.47
2019-02-21T05:33:50.329Z,79.82
2019-02-21T05:34:50.321Z,79.79
2019-02-21T05:35:50.309Z,80.29
2019-02-21T05:36:50.307Z,79.43
2019-02-21T05:37:50.338Z,79.79
2019-02-21T05:38:50.276Z,80.00
2019-02-21T05:39:50.280Z,79.79
2019-02-21T05:40:50.267Z,79.79
2019-02-21T05:41:50.246Z,79.90
2019-02-21T05:42:50.240Z,80.00
2019-02-21T05:43:50.411Z,79.93
2019-02-21T05:44:50.213Z,79.57
2019-02-21T05:45:50.218Z,79.68
2019-02-21T05:46:50.206Z,79.90
2019-02-21T05:47:50.189Z,79.86
2019-02-21T05:48:50.179Z,79.68
2019-02-21T05:49:50.213Z,78.93
2019-02-21T05:50:50.152Z,79.04
2019-02-21T05:51:50.149Z,78.79
2019-02-21T05:52:50.139Z,78.93
2019-02-21T05:53:50.127Z,79.47
2019-02-21T05:54:50.249Z,79.57
2019-02-21T05:55:50.150Z,79.90
2019-02-21T05:56:50.138Z,79.43
2019-02-21T05:57:50.100Z,80.18
2019-02-21T05:58:50.074Z,78.47
2019-02-21T05:59:50.061Z,78.79
2019-02-21T06:00:50.062Z,78.89
2019-02-21T06:01:50.225Z,78.79
2019-02-21T06:02:53.470Z,78.04
2019-02-21T06:04:00.184Z,77.83
2019-02-21T06:04:51.957Z,78.04
2019-02-21T06:05:50.014Z,77.72
2019-02-21T06:06:50.006Z,78.19
2019-02-21T06:07:50.035Z,78.15
2019-02-21T06:08:49.974Z,78.04
2019-02-21T06:09:49.962Z,77.72
2019-02-21T06:10:49.964Z,77.51
2019-02-21T06:11:49.951Z,77.61
2019-02-21T06:12:49.940Z,78.25
2019-02-21T06:13:49.985Z,77.40
2019-02-21T06:14:49.915Z,77.94
2019-02-21T06:15:49.903Z,78.36
2019-02-21T06:16:49.923Z,77.40
2019-02-21T06:17:49.887Z,77.40
2019-02-21T06:18:49.870Z,77.61
2019-02-21T06:19:49.909Z,77.51
2019-02-21T06:20:49.858Z,77.83
2019-02-21T06:21:50.887Z,77.19
2019-02-21T06:22:49.854Z,76.87
2019-02-21T06:23:49.836Z,76.76
2019-02-21T06:24:49.817Z,76.33
2019-02-21T06:25:53.154Z,76.44
2019-02-21T06:26:50.802Z,76.54
2019-02-21T06:27:49.784Z,76.23
2019-02-21T06:28:49.787Z,76.44
2019-02-21T06:29:49.767Z,76.87
2019-02-21T06:30:49.797Z,76.33
2019-02-21T06:31:49.813Z,76.65
2019-02-21T06:32:49.740Z,76.54
2019-02-21T06:33:49.728Z,76.97
2019-02-21T06:35:02.428Z,75.90
2019-02-21T06:35:49.716Z,76.40
2019-02-21T06:36:49.718Z,76.01
2019-02-21T06:37:49.723Z,76.97
2019-02-21T06:38:49.673Z,76.33
2019-02-21T06:39:49.680Z,76.51
2019-02-21T06:40:49.658Z,76.12
2019-02-21T06:41:59.127Z,75.90
2019-02-21T06:42:50.656Z,75.90
2019-02-21T06:43:52.488Z,75.59
2019-02-21T06:44:49.620Z,75.66
2019-02-21T06:45:49.627Z,75.69
2019-02-21T06:46:49.589Z,75.55
2019-02-21T06:47:49.592Z,75.45
2019-02-21T06:48:51.565Z,75.69
2019-02-21T06:49:49.563Z,75.37
2019-02-21T06:50:49.551Z,75.76
2019-02-21T06:51:49.605Z,75.69
2019-02-21T06:52:49.527Z,75.37
2019-02-21T06:53:49.536Z,75.80
2019-02-21T06:54:49.508Z,75.45
2019-02-21T06:55:49.501Z,75.55
2019-02-21T06:56:49.490Z,75.87
2019-02-21T06:57:49.520Z,75.55
2019-02-21T06:58:49.472Z,75.55
2019-02-21T06:59:50.220Z,74.80
2019-02-21T07:00:49.454Z,74.70
2019-02-21T07:01:49.437Z,75.23
2019-02-21T07:02:49.428Z,75.02
2019-02-21T07:03:49.428Z,75.23
2019-02-21T07:04:49.410Z,75.02
2019-02-21T07:05:59.732Z,74.91
2019-02-21T07:06:49.389Z,75.02
2019-02-21T07:07:49.940Z,74.27
2019-02-21T07:08:49.394Z,74.70
2019-02-21T07:09:49.359Z,74.38
2019-02-21T07:10:49.362Z,74.49
2019-02-21T07:11:49.379Z,74.16
2019-02-21T07:12:49.332Z,74.59
2019-02-21T07:13:49.323Z,74.38
2019-02-21T07:14:49.316Z,74.49
2019-02-21T07:15:49.296Z,74.49
2019-02-21T07:16:49.290Z,74.70
2019-02-21T07:17:49.852Z,74.16
2019-02-21T07:18:49.269Z,73.85
2019-02-21T07:19:49.260Z,74.02
2019-02-21T07:20:49.303Z,73.85
2019-02-21T07:21:49.244Z,73.85
2019-02-21T07:22:49.249Z,73.92
2019-02-21T07:23:49.232Z,74.45
2019-02-21T07:24:49.210Z,73.60
2019-02-21T07:25:50.611Z,73.81
2019-02-21T07:26:49.195Z,73.38
2019-02-21T07:27:49.183Z,73.71
2019-02-21T07:28:49.183Z,73.38
2019-02-21T07:29:49.162Z,73.71
2019-02-21T07:30:49.151Z,73.49
2019-02-21T07:31:49.469Z,73.60
2019-02-21T07:32:49.126Z,73.25
2019-02-21T07:33:49.158Z,72.82
2019-02-21T07:34:49.151Z,72.07
2019-02-21T07:35:49.109Z,72.50
2019-02-21T07:36:59.820Z,72.82
2019-02-21T07:37:49.096Z,72.92
2019-02-21T07:38:49.076Z,72.92
2019-02-21T07:39:50.879Z,71.97
2019-02-21T07:40:49.131Z,73.03
2019-02-21T07:41:50.040Z,73.46
2019-02-21T07:42:49.046Z,73.74
2019-02-21T07:43:49.025Z,72.78
2019-02-21T07:44:49.055Z,73.03
2019-02-21T07:45:48.998Z,72.71
2019-02-21T07:46:49.041Z,72.04
2019-02-21T07:47:48.978Z,71.54
2019-02-21T07:48:48.968Z,71.40
2019-02-21T07:49:48.960Z,71.65
2019-02-21T07:50:48.949Z,71.40
2019-02-21T07:51:49.099Z,71.51
2019-02-21T07:52:48.941Z,71.51
2019-02-21T07:53:48.949Z,71.40
2019-02-21T07:54:54.168Z,71.19
2019-02-21T07:55:49.938Z,71.08
2019-02-21T07:56:48.895Z,70.84
2019-02-21T07:57:48.911Z,70.97
2019-02-21T07:58:48.985Z,70.97
2019-02-21T07:59:48.857Z,70.97
2019-02-21T08:00:48.849Z,71.26
2019-02-21T08:01:48.835Z,71.05
2019-02-21T08:02:48.827Z,70.94
2019-02-21T08:03:49.001Z,71.05
2019-02-21T08:04:48.810Z,70.17
2019-02-21T08:05:48.830Z,69.77
2019-02-21T08:06:48.791Z,69.56
2019-02-21T08:07:58.932Z,69.24
2019-02-21T08:08:48.770Z,69.67
2019-02-21T08:09:48.798Z,69.56
2019-02-21T08:10:48.746Z,69.53
2019-02-21T08:11:48.745Z,69.64
2019-02-21T08:12:48.734Z,69.42
2019-02-21T08:13:48.724Z,69.02
2019-02-21T08:14:48.708Z,69.21
2019-02-21T08:15:48.704Z,69.74
2019-02-21T08:16:48.697Z,68.96
2019-02-21T08:17:48.682Z,69.60
2019-02-21T08:18:48.663Z,69.18
2019-02-21T08:19:48.654Z,68.54
2019-02-21T08:20:48.718Z,68.65
2019-02-21T08:21:48.681Z,68.65
2019-02-21T08:22:48.629Z,68.65
2019-02-21T08:23:50.816Z,68.54
2019-02-21T08:24:48.606Z,67.47
2019-02-21T08:25:48.721Z,68.01
2019-02-21T08:26:48.624Z,67.87
2019-02-21T08:27:48.573Z,67.87
2019-02-21T08:28:48.594Z,66.80
2019-02-21T08:29:48.554Z,67.63
2019-02-21T08:30:48.549Z,67.52
2019-02-21T08:31:48.535Z,66.85
2019-02-21T08:32:48.568Z,66.24
2019-02-21T08:33:57.940Z,65.66
2019-02-21T08:34:49.510Z,64.82
2019-02-21T08:35:48.497Z,62.32
2019-02-21T08:36:48.488Z,60.89
2019-02-21T08:37:48.476Z,59.09
2019-02-21T08:39:00.328Z,57.27
2019-02-21T08:39:48.457Z,55.19
2019-02-21T08:40:48.448Z,54.16
2019-02-21T08:41:48.429Z,53.24
2019-02-21T08:42:48.425Z,51.95
2019-02-21T08:43:48.436Z,50.60
2019-02-21T08:44:48.426Z,50.90
2019-02-21T08:45:48.396Z,50.12
2019-02-21T08:46:48.378Z,49.31
2019-02-21T08:47:48.504Z,47.25
2019-02-21T08:48:48.364Z,46.53
2019-02-21T08:49:48.343Z,46.11
2019-02-21T08:50:48.563Z,46.59
2019-02-21T08:51:48.323Z,46.28
2019-02-21T08:52:48.335Z,46.07
2019-02-21T08:53:48.359Z,44.79
2019-02-21T08:54:59.533Z,44.73
2019-02-21T08:55:49.347Z,45.46
2019-02-21T08:56:48.280Z,45.32
2019-02-21T08:57:48.259Z,45.00
2019-02-21T08:58:48.247Z,44.22
2019-02-21T08:59:48.253Z,45.38
2019-02-21T09:00:48.235Z,45.17
2019-02-21T09:01:48.261Z,44.87
2019-02-21T09:02:48.215Z,46.45
2019-02-21T09:03:48.199Z,46.09
2019-02-21T09:04:48.190Z,45.15
2019-02-21T09:05:48.202Z,45.36
2019-02-21T09:06:48.166Z,44.81
2019-02-21T09:07:48.188Z,44.96
2019-02-21T09:08:48.141Z,43.54
2019-02-21T09:09:57.945Z,41.73
2019-02-21T09:10:48.118Z,44.04
2019-02-21T09:11:48.113Z,42.55
2019-02-21T09:12:48.763Z,42.13
2019-02-21T09:13:56.017Z,42.11
2019-02-21T09:14:48.076Z,42.07
2019-02-21T09:15:48.074Z,41.05
2019-02-21T09:16:48.057Z,42.18
2019-02-21T09:17:48.042Z,42.18
2019-02-21T09:18:48.034Z,41.83
2019-02-21T09:19:48.227Z,39.72
2019-02-21T09:20:48.046Z,40.03
2019-02-21T09:21:48.088Z,39.42
2019-02-21T09:22:48.004Z,41.36
2019-02-21T09:23:56.722Z,40.92
2019-02-21T09:24:47.992Z,41.36
2019-02-21T09:25:49.634Z,41.13
2019-02-21T09:26:47.951Z,40.38
2019-02-21T09:27:47.944Z,40.14
2019-02-21T09:28:47.927Z,39.73
2019-02-21T09:29:47.915Z,39.92
2019-02-21T09:30:47.949Z,39.99
2019-02-21T09:31:47.897Z,39.14
2019-02-21T09:32:47.884Z,38.11
2019-02-21T09:33:47.875Z,39.78
2019-02-21T09:34:50.295Z,38.41
2019-02-21T09:35:47.855Z,37.05
2019-02-21T09:36:47.876Z,37.61
2019-02-21T09:37:47.836Z,37.94
2019-02-21T09:38:47.817Z,38.64
2019-02-21T09:39:47.814Z,38.46
2019-02-21T09:40:47.798Z,38.57
2019-02-21T09:41:47.786Z,38.64
2019-02-21T09:42:47.815Z,37.84
2019-02-21T09:43:47.774Z,37.99
2019-02-21T09:44:49.743Z,38.18
2019-02-21T09:45:47.752Z,37.52
2019-02-21T09:46:47.731Z,35.10
2019-02-21T09:47:47.725Z,35.80
2019-02-21T09:48:47.742Z,36.76
2019-02-21T09:49:47.698Z,36.77
2019-02-21T09:50:47.699Z,37.88
2019-02-21T09:51:47.675Z,37.33
2019-02-21T09:52:47.663Z,36.57
2019-02-21T09:53:47.652Z,35.46
2019-02-21T09:54:58.950Z,33.34
2019-02-21T09:55:50.194Z,34.31
2019-02-21T09:56:52.851Z,35.66
2019-02-21T09:57:48.616Z,35.66
2019-02-21T09:58:47.604Z,35.96
2019-02-21T09:59:47.601Z,35.00
2019-02-21T10:00:47.624Z,34.84
2019-02-21T10:01:47.598Z,34.05
2019-02-21T10:02:47.561Z,32.09
2019-02-21T10:03:47.551Z,32.24
2019-02-21T10:04:47.547Z,33.51
2019-02-21T10:05:49.729Z,33.10
2019-02-21T10:06:47.595Z,33.38
2019-02-21T10:07:47.507Z,32.53
2019-02-21T10:08:47.520Z,32.21
2019-02-21T10:09:47.488Z,31.69
2019-02-21T10:10:47.474Z,32.42
2019-02-21T10:11:47.471Z,33.05
2019-02-21T10:12:47.501Z,32.32
2019-02-21T10:13:47.664Z,31.98
2019-02-21T10:14:47.437Z,32.00
2019-02-21T10:15:47.426Z,32.83
2019-02-21T10:16:49.610Z,32.27
2019-02-21T10:17:47.406Z,30.77
2019-02-21T10:18:47.446Z,30.88
2019-02-21T10:19:47.455Z,31.23
2019-02-21T10:20:47.373Z,30.63
2019-02-21T10:21:47.370Z,32.29
2019-02-21T10:22:47.355Z,32.17
2019-02-21T10:23:47.342Z,30.46
2019-02-21T10:24:56.932Z,31.21
2019-02-21T10:25:47.329Z,29.69
2019-02-21T10:26:47.313Z,31.24
2019-02-21T10:27:47.303Z,30.73
2019-02-21T10:28:47.302Z,30.52
2019-02-21T10:29:47.456Z,29.80
2019-02-21T10:30:47.266Z,30.83
2019-02-21T10:31:47.263Z,31.13
2019-02-21T10:32:47.245Z,30.80
2019-02-21T10:33:47.517Z,30.49
2019-02-21T10:34:47.229Z,30.83
2019-02-21T10:35:47.222Z,30.00
2019-02-21T10:36:47.241Z,30.96
2019-02-21T10:37:47.199Z,31.67
2019-02-21T10:38:47.186Z,31.17
2019-02-21T10:39:47.862Z,31.26
2019-02-21T10:40:47.168Z,31.97
2019-02-21T10:41:47.158Z,31.01
2019-02-21T10:42:47.189Z,29.69
2019-02-21T10:43:47.135Z,28.12
2019-02-21T10:44:47.128Z,28.42
2019-02-21T10:45:48.234Z,28.25
2019-02-21T10:46:47.112Z,28.57
2019-02-21T10:47:47.092Z,29.75
2019-02-21T10:48:47.257Z,29.88
2019-02-21T10:49:47.091Z,30.99
2019-02-21T10:50:47.066Z,29.64
2019-02-21T10:51:47.050Z,29.96
2019-02-21T10:52:47.042Z,29.10
2019-02-21T10:53:47.029Z,29.39
2019-02-21T10:54:47.038Z,29.26
2019-02-21T10:55:57.541Z,30.11
2019-02-21T10:56:46.996Z,31.21
2019-02-21T10:57:46.995Z,29.76
2019-02-21T10:58:46.975Z,29.32
2019-02-21T10:59:47.208Z,29.84
2019-02-21T11:00:47.493Z,29.14
2019-02-21T11:01:46.959Z,30.37
2019-02-21T11:02:46.939Z,31.37
2019-02-21T11:03:46.941Z,29.63
2019-02-21T11:04:54.335Z,28.79
2019-02-21T11:05:47.943Z,28.70
2019-02-21T11:06:46.902Z,29.44
2019-02-21T11:07:46.899Z,30.68
2019-02-21T11:08:46.882Z,29.84
2019-02-21T11:09:46.874Z,29.10
2019-02-21T11:10:46.857Z,31.36
2019-02-21T11:11:46.883Z,31.05
2019-02-21T11:12:47.471Z,31.92
2019-02-21T11:13:46.832Z,33.34
2019-02-21T11:14:47.776Z,36.16
2019-02-21T11:15:56.491Z,35.69
2019-02-21T11:16:46.863Z,36.94
2019-02-21T11:17:46.847Z,35.79
2019-02-21T11:18:46.775Z,31.44
2019-02-21T11:19:46.776Z,29.26
2019-02-21T11:20:46.776Z,31.35
2019-02-21T11:21:46.741Z,29.49
2019-02-21T11:22:46.737Z,31.67
2019-02-21T11:23:46.896Z,31.20
2019-02-21T11:24:46.722Z,28.25
2019-02-21T11:25:46.699Z,28.76
2019-02-21T11:26:46.698Z,28.89
2019-02-21T11:27:46.703Z,27.52
2019-02-21T11:28:47.385Z,28.67
2019-02-21T11:29:46.706Z,27.64
2019-02-21T11:30:46.650Z,27.94
2019-02-21T11:31:46.647Z,28.57
2019-02-21T11:32:46.858Z,28.88
2019-02-21T11:33:46.619Z,28.64
2019-02-21T11:34:46.609Z,28.56
2019-02-21T11:35:46.641Z,27.16
2019-02-21T11:36:46.595Z,25.83
2019-02-21T11:37:47.455Z,27.38
2019-02-21T11:38:46.597Z,26.95
2019-02-21T11:39:46.562Z,27.56
2019-02-21T11:40:46.556Z,26.43
2019-02-21T11:41:46.628Z,25.01
2019-02-21T11:42:46.529Z,28.10
2019-02-21T11:43:46.527Z,27.78
2019-02-21T11:44:46.519Z,27.20
2019-02-21T11:45:53.796Z,27.52
2019-02-21T11:47:59.919Z,27.65
2019-02-21T11:48:59.902Z,27.87
2019-02-21T11:49:59.887Z,26.14
2019-02-21T11:50:59.895Z,27.98
2019-02-21T11:52:09.809Z,26.21
2019-02-21T11:53:00.898Z,25.57
2019-02-21T11:53:59.847Z,26.35
2019-02-21T11:54:59.836Z,27.58
2019-02-21T11:55:59.838Z,27.70
2019-02-21T11:56:59.828Z,27.73
2019-02-21T11:57:59.849Z,27.58
2019-02-21T11:58:59.802Z,26.42
2019-02-21T11:59:59.793Z,25.98
2019-02-21T12:00:59.779Z,25.12
2019-02-21T12:01:59.774Z,25.09
2019-02-21T12:02:59.761Z,27.02
2019-02-21T12:03:59.784Z,25.14
2019-02-21T12:04:59.736Z,26.57
2019-02-21T12:05:59.743Z,25.96
2019-02-21T12:06:59.711Z,25.15
2019-02-21T12:07:59.722Z,24.62
2019-02-21T12:08:59.693Z,24.96
2019-02-21T12:09:59.726Z,26.03
2019-02-21T12:10:59.704Z,27.16
2019-02-21T12:11:59.656Z,26.03
2019-02-21T12:12:59.651Z,24.85
2019-02-21T12:13:59.657Z,24.88
2019-02-21T12:14:59.629Z,26.22
2019-02-21T12:15:59.668Z,26.23
2019-02-21T12:16:59.605Z,26.26
2019-02-21T12:18:06.576Z,26.67
2019-02-21T12:18:59.584Z,26.17
2019-02-21T12:19:59.578Z,27.26
2019-02-21T12:20:59.566Z,26.64
2019-02-21T12:21:59.593Z,26.32
2019-02-21T12:22:59.555Z,26.49
2019-02-21T12:23:59.531Z,25.28
2019-02-21T12:24:59.562Z,24.75
2019-02-21T12:25:59.518Z,24.95
2019-02-21T12:26:59.692Z,27.53
2019-02-21T12:27:59.492Z,27.47
2019-02-21T12:28:59.489Z,27.40
2019-02-21T12:29:59.471Z,26.56
2019-02-21T12:30:59.471Z,27.39
2019-02-21T12:31:59.456Z,27.23
2019-02-21T12:32:59.483Z,27.82
2019-02-21T12:33:59.428Z,27.59
2019-02-21T12:34:59.429Z,27.39
2019-02-21T12:35:59.733Z,27.30
2019-02-21T12:36:59.402Z,26.64
2019-02-21T12:37:59.389Z,26.03
2019-02-21T12:38:59.418Z,27.38
2019-02-21T12:39:59.375Z,27.87
2019-02-21T12:40:59.377Z,24.54
2019-02-21T12:41:59.352Z,25.20
2019-02-21T12:42:59.414Z,25.10
2019-02-21T12:43:59.324Z,25.60
2019-02-21T12:44:59.351Z,25.00
2019-02-21T12:45:59.312Z,26.39
2019-02-21T12:46:59.298Z,26.25
2019-02-21T12:47:59.283Z,24.97
2019-02-21T12:49:10.793Z,24.99
2019-02-21T12:49:59.274Z,25.09
2019-02-21T12:50:59.271Z,25.10
2019-02-21T12:51:59.245Z,24.89
2019-02-21T12:52:59.229Z,26.51
2019-02-21T12:53:59.223Z,25.47